• Join FlightAware (Why Join?)
  • Login
  • US Flag 
03:30AM EDT


 

Airport Tracker/Info


-or-


 

Live Flight TrackerFlight Track Log ✈ JIA2259 ✈ 03-May-2013 ✈ KCLT - KSAV

Flight Track Log - Related Links

Times and Time Zones

All times are in EDT time to prevent confusion due to time zone crossing. See the JIA2259 flight status page for this flight to view local times or setup timezone preferences in your user account.

Time Position Orientation Groundspeed Altitude Reporting Facility
EDT Latitude Longitude Course Direction KTS MPH feet Rate Location/Type
11:07PM 35.2303 -80.9242 180° South 146 168 1,700  Level Atlanta Center
11:08PM 35.2289 -80.8733 92° East 198 228 4,500 2,460 Climbing Atlanta Center
11:09PM 34.9137 -80.9745 175° South  Level Estimated
11:09PM 35.1808 -80.8750 182° South 210 242 6,500  Level Atlanta Center
11:09PM 35.1642 -80.8758 182° South 242 278 6,800 2,160 Climbing Atlanta Center
11:10PM 34.8299 -80.9073 147° Southeast  Level FlightAware Approximate
11:10PM 35.0994 -80.8756 180° South 269 310 8,700  Level Atlanta Center
11:10PM 35.0956 -80.8783 210° Southwest 282 325 9,700 2,400 Climbing Atlanta Center
11:11PM 34.7300 -80.9185 180° South  Level Estimated
11:11PM 35.0308 -80.8808 182° South 275 316 11,100  Level Atlanta Center
11:12PM 34.6302 -80.9297 180° South  Level Estimated
11:12PM 34.9475 -80.8864 183° South 349 402 13,400  Level Atlanta Center
11:14PM 34.7844 -80.8931 182° South 346 398 16,700 1,860 Climbing Jacksonville Center
11:15PM 34.6844 -80.9081 187° South 351 404 18,500 1,680 Climbing Jacksonville Center
11:16PM 34.5783 -80.9231 187° South 372 428 20,100 1,680 Climbing Jacksonville Center
11:17PM 34.4719 -80.9256 181° South 388 447 21,900 900 Climbing Jacksonville Center
11:18PM 34.3617 -80.9431 187° South 393 452 22,000  Climbing Jacksonville Center
11:19PM 34.2597 -80.9556 186° South 394 453 22,000  Level Jacksonville Center
11:20PM 34.1514 -80.9678 185° South 387 445 22,000  Level Jacksonville Center
11:21PM 34.0453 -80.9828 187° South 387 445 22,000  Level Jacksonville Center
11:22PM 33.9347 -80.9978 186° South 387 445 22,000  Level Jacksonville Center
11:23PM 33.8286 -81.0100 185° South 387 445 22,000  Level Jacksonville Center
11:24PM 33.7203 -81.0197 184° South 387 445 22,000  Level Jacksonville Center
11:25PM 33.6139 -81.0319 185° South 387 445 22,000  Level Jacksonville Center
11:26PM 33.5078 -81.0467 187° South 387 445 22,000  Level Jacksonville Center
11:27PM 33.4017 -81.0589 185° South 387 445 22,000  Level Jacksonville Center
11:28PM 33.2931 -81.0711 185° South 387 445 22,000 -120 Level Jacksonville Center
11:29PM 33.1869 -81.0831 185° South 387 445 21,800 -1,380 Descending Jacksonville Center
11:30PM 33.0828 -81.0953 186° South 387 445 19,300 -2,400 Descending Jacksonville Center
11:31PM 32.9869 -81.1069 186° South 387 445 17,100 -2,400 Descending Jacksonville Center
11:32PM 32.8847 -81.1164 184° South 387 445 14,600 -2,400 Descending Jacksonville Center
11:33PM 32.7847 -81.1283 186° South 380 437 12,400 -1,980 Descending Jacksonville Center
11:34PM 32.6953 -81.1622 198° South 360 414 10,700 -1,500 Descending Jacksonville Center
11:35PM 32.6233 -81.2300 218° Southwest 320 368 9,500 -1,320 Descending Jacksonville Center
11:36PM 32.5719 -81.2903 225° Southwest 297 342 8,100 -1,500 Descending Jacksonville Center
11:37PM 32.4997 -81.3556 217° Southwest 297 342 6,500 -1,500 Descending Jacksonville Center
11:38PM 32.4356 -81.4083 215° Southwest 285 328 5,200 -1,380 Descending Jacksonville Center
11:39PM 32.3669 -81.4339 197° South 265 305 3,800 -1,200 Descending Jacksonville Center
11:40PM 32.3044 -81.4450 189° South 260 299 2,900 -660 Descending Jacksonville Center
11:41PM 32.2356 -81.4533 186° South 260 299 2,500 -420 Descending Jacksonville Center
11:42PM 32.1644 -81.4469 176° South 240 276 2,100 -420 Descending Jacksonville Center